createdAt,value
2023-02-18T00:00:36.829Z,15.42
2023-02-18T00:01:36.846Z,15.22
2023-02-18T00:02:36.914Z,15.42
2023-02-18T00:03:36.937Z,15.52
2023-02-18T00:04:36.835Z,15.22
2023-02-18T00:05:36.833Z,15.52
2023-02-18T00:06:36.823Z,15.42
2023-02-18T00:07:36.830Z,15.22
2023-02-18T00:08:36.826Z,15.22
2023-02-18T00:09:36.829Z,15.42
2023-02-18T00:10:36.821Z,15.32
2023-02-18T00:11:36.933Z,15.42
2023-02-18T00:12:36.817Z,15.22
2023-02-18T00:13:36.825Z,15.03
2023-02-18T00:14:36.825Z,15.03
2023-02-18T00:15:36.868Z,15.03
2023-02-18T00:16:36.815Z,15.03
2023-02-18T00:17:36.833Z,15.12
2023-02-18T00:18:36.818Z,15.03
2023-02-18T00:19:36.845Z,15.12
2023-02-18T00:20:36.817Z,15.22
2023-02-18T00:21:36.822Z,15.03
2023-02-18T00:22:36.815Z,15.12
2023-02-18T00:23:36.819Z,15.03
2023-02-18T00:24:36.811Z,15.12
2023-02-18T00:25:36.818Z,15.03
2023-02-18T00:26:36.809Z,15.03
2023-02-18T00:27:36.815Z,15.03
2023-02-18T00:28:36.862Z,15.03
2023-02-18T00:29:36.815Z,15.03
2023-02-18T00:30:36.806Z,15.12
2023-02-18T00:31:36.985Z,15.12
2023-02-18T00:32:36.805Z,15.12
2023-02-18T00:33:36.814Z,15.12
2023-02-18T00:34:36.806Z,15.52
2023-02-18T00:35:36.835Z,15.03
2023-02-18T00:36:36.802Z,15.12
2023-02-18T00:37:36.813Z,15.12
2023-02-18T00:38:36.800Z,15.03
2023-02-18T00:39:36.809Z,15.12
2023-02-18T00:40:36.801Z,15.12
2023-02-18T00:41:36.809Z,15.03
2023-02-18T00:42:36.798Z,15.12
2023-02-18T00:43:36.805Z,15.52
2023-02-18T00:44:36.797Z,15.12
2023-02-18T00:45:36.805Z,15.03
2023-02-18T00:46:36.849Z,15.03
2023-02-18T00:47:36.804Z,15.12
2023-02-18T00:48:36.798Z,15.52
2023-02-18T00:49:36.801Z,15.52
2023-02-18T00:50:36.796Z,15.52
2023-02-18T00:51:36.826Z,15.12
2023-02-18T00:52:36.792Z,15.03
2023-02-18T00:53:36.801Z,15.61
2023-02-18T00:54:36.790Z,15.61
2023-02-18T00:55:36.798Z,15.52
2023-02-18T00:56:36.799Z,15.52
2023-02-18T00:57:36.796Z,15.52
2023-02-18T00:58:36.790Z,15.52
2023-02-18T00:59:36.795Z,15.12
2023-02-18T01:00:36.786Z,15.52
2023-02-18T01:01:36.871Z,15.42
2023-02-18T01:02:36.790Z,15.42
2023-02-18T01:03:36.792Z,15.61
2023-02-18T01:04:36.816Z,15.61
2023-02-18T01:05:36.799Z,15.61
2023-02-18T01:06:36.789Z,15.42
2023-02-18T01:07:36.814Z,15.52
2023-02-18T01:08:36.782Z,15.61
2023-02-18T01:09:36.790Z,15.22
2023-02-18T01:10:36.783Z,15.61
2023-02-18T01:11:36.789Z,15.42
2023-02-18T01:12:36.782Z,15.42
2023-02-18T01:13:36.797Z,15.22
2023-02-18T01:14:36.780Z,15.61
2023-02-18T01:15:36.798Z,15.42
2023-02-18T01:16:36.788Z,15.42
2023-02-18T01:17:36.788Z,15.52
2023-02-18T01:18:36.778Z,15.61
2023-02-18T01:19:36.785Z,15.52
2023-02-18T01:20:36.777Z,15.61
2023-02-18T01:21:36.837Z,15.42
2023-02-18T01:22:36.782Z,15.52
2023-02-18T01:23:36.807Z,15.52
2023-02-18T01:24:36.774Z,15.61
2023-02-18T01:25:36.783Z,15.22
2023-02-18T01:26:36.785Z,15.52
2023-02-18T01:27:36.781Z,15.32
2023-02-18T01:28:36.772Z,15.52
2023-02-18T01:29:36.779Z,15.22
2023-02-18T01:30:36.773Z,15.52
2023-02-18T01:31:36.852Z,15.22
2023-02-18T01:32:36.769Z,15.52
2023-02-18T01:33:36.777Z,15.42
2023-02-18T01:34:36.767Z,15.52
2023-02-18T01:35:36.779Z,15.52
2023-02-18T01:36:36.768Z,15.52
2023-02-18T01:37:36.775Z,15.32
2023-02-18T01:38:36.767Z,15.42
2023-02-18T01:39:36.793Z,15.52
2023-02-18T01:40:36.763Z,15.52
2023-02-18T01:41:36.771Z,15.52
2023-02-18T01:42:36.758Z,15.61
2023-02-18T01:43:36.765Z,15.61
2023-02-18T01:44:36.756Z,15.52
2023-02-18T01:45:36.763Z,15.42
2023-02-18T01:46:36.796Z,15.52
2023-02-18T01:47:36.762Z,15.52
2023-02-18T01:48:39.093Z,15.61
2023-02-18T01:49:36.759Z,15.42
2023-02-18T01:50:36.752Z,15.61
2023-02-18T01:51:36.757Z,15.52
2023-02-18T01:52:36.751Z,15.52
2023-02-18T01:53:36.756Z,15.52
2023-02-18T01:54:36.755Z,15.52
2023-02-18T01:55:36.779Z,15.42
2023-02-18T01:56:36.756Z,15.52
2023-02-18T01:57:36.753Z,15.52
2023-02-18T01:58:36.752Z,15.52
2023-02-18T01:59:36.752Z,15.42
2023-02-18T02:00:36.778Z,15.52
2023-02-18T02:01:36.794Z,15.61
2023-02-18T02:02:36.740Z,15.42
2023-02-18T02:03:36.757Z,15.52
2023-02-18T02:04:36.742Z,15.52
2023-02-18T02:05:36.747Z,15.61
2023-02-18T02:06:36.746Z,15.52
2023-02-18T02:07:36.746Z,15.42
2023-02-18T02:08:36.736Z,15.52
2023-02-18T02:09:36.744Z,15.61
2023-02-18T02:10:36.735Z,15.52
2023-02-18T02:11:36.901Z,15.52
2023-02-18T02:12:36.740Z,15.52
2023-02-18T02:13:36.740Z,15.52
2023-02-18T02:14:36.737Z,15.52
2023-02-18T02:15:36.739Z,15.42
2023-02-18T02:16:36.792Z,15.52
2023-02-18T02:17:36.739Z,15.52
2023-02-18T02:18:36.738Z,15.61
2023-02-18T02:19:36.736Z,15.42
2023-02-18T02:20:36.731Z,15.61
2023-02-18T02:21:36.736Z,15.61
2023-02-18T02:22:36.728Z,15.42
2023-02-18T02:23:36.733Z,15.61
2023-02-18T02:24:36.746Z,15.61
2023-02-18T02:25:36.734Z,15.61
2023-02-18T02:26:36.725Z,15.61
2023-02-18T02:27:36.757Z,15.42
2023-02-18T02:28:36.725Z,15.52
2023-02-18T02:29:36.730Z,15.42
2023-02-18T02:30:36.830Z,15.52
2023-02-18T02:31:36.761Z,15.42
2023-02-18T02:32:36.720Z,15.52
2023-02-18T02:33:36.728Z,15.61
2023-02-18T02:34:36.718Z,15.52
2023-02-18T02:35:36.726Z,15.61
2023-02-18T02:36:36.725Z,15.52
2023-02-18T02:37:36.731Z,15.42
2023-02-18T02:38:36.714Z,15.61
2023-02-18T02:39:36.722Z,15.61
2023-02-18T02:40:36.714Z,15.61
2023-02-18T02:41:36.724Z,15.61
2023-02-18T02:42:36.725Z,15.61
2023-02-18T02:43:36.742Z,15.61
2023-02-18T02:44:36.715Z,15.61
2023-02-18T02:45:36.808Z,15.61
2023-02-18T02:46:36.730Z,15.52
2023-02-18T02:47:36.721Z,15.61
2023-02-18T02:48:36.711Z,15.52
2023-02-18T02:49:36.718Z,15.61
2023-02-18T02:50:36.709Z,15.71
2023-02-18T02:51:36.717Z,15.61
2023-02-18T02:52:36.709Z,15.81
2023-02-18T02:53:36.718Z,15.61
2023-02-18T02:54:36.725Z,15.61
2023-02-18T02:55:36.715Z,15.52
2023-02-18T02:56:36.721Z,15.81
2023-02-18T02:57:36.714Z,15.61
2023-02-18T02:58:36.708Z,15.42
2023-02-18T02:59:36.735Z,15.61
2023-02-18T03:00:36.705Z,15.42
2023-02-18T03:01:36.716Z,15.52
2023-02-18T03:02:36.704Z,15.42
2023-02-18T03:03:36.710Z,15.81
2023-02-18T03:04:36.705Z,15.61
2023-02-18T03:05:36.714Z,15.61
2023-02-18T03:06:36.701Z,15.52
2023-02-18T03:07:36.710Z,15.61
2023-02-18T03:08:36.703Z,15.61
2023-02-18T03:09:36.708Z,15.71
2023-02-18T03:10:36.702Z,15.61
2023-02-18T03:11:36.705Z,15.52
2023-02-18T03:12:36.699Z,15.61
2023-02-18T03:13:36.706Z,15.71
2023-02-18T03:14:36.696Z,15.61
2023-02-18T03:15:36.728Z,15.71
2023-02-18T03:16:36.776Z,15.61
2023-02-18T03:17:36.702Z,15.71
2023-02-18T03:18:36.724Z,15.61
2023-02-18T03:19:36.704Z,15.61
2023-02-18T03:20:36.694Z,15.61
2023-02-18T03:21:36.700Z,15.61
2023-02-18T03:22:36.692Z,15.61
2023-02-18T03:23:36.698Z,15.61
2023-02-18T03:24:36.689Z,15.61
2023-02-18T03:25:36.706Z,15.61
2023-02-18T03:26:36.689Z,15.52
2023-02-18T03:27:36.694Z,15.61
2023-02-18T03:28:36.692Z,15.61
2023-02-18T03:29:36.687Z,15.71
2023-02-18T03:30:36.716Z,15.61
2023-02-18T03:31:37.000Z,15.61
2023-02-18T03:32:36.691Z,15.61
2023-02-18T03:33:36.684Z,15.61
2023-02-18T03:34:36.692Z,15.61
2023-02-18T03:35:36.682Z,15.61
2023-02-18T03:36:36.700Z,15.71
2023-02-18T03:37:36.682Z,15.71
2023-02-18T03:38:36.687Z,15.61
2023-02-18T03:39:36.682Z,15.71
2023-02-18T03:40:36.687Z,15.61
2023-02-18T03:41:36.680Z,15.71
2023-02-18T03:42:36.684Z,15.61
2023-02-18T03:43:36.677Z,15.71
2023-02-18T03:44:36.687Z,15.71
2023-02-18T03:45:36.714Z,15.61
2023-02-18T03:46:36.681Z,15.71
2023-02-18T03:47:36.694Z,15.71
2023-02-18T03:48:36.680Z,15.71
2023-02-18T03:49:36.674Z,15.71
2023-02-18T03:50:36.679Z,15.61
2023-02-18T03:51:36.670Z,15.71
2023-02-18T03:52:36.684Z,15.71
2023-02-18T03:53:36.669Z,15.71
2023-02-18T03:54:36.675Z,15.71
2023-02-18T03:55:36.672Z,15.71
2023-02-18T03:56:36.671Z,15.61
2023-02-18T03:57:36.664Z,15.61
2023-02-18T03:58:36.669Z,15.61
2023-02-18T03:59:36.661Z,15.52
2023-02-18T04:00:36.667Z,15.71
2023-02-18T04:01:36.780Z,15.61
2023-02-18T04:02:36.665Z,15.52
2023-02-18T04:03:36.678Z,15.61
2023-02-18T04:04:36.767Z,15.81
2023-02-18T04:05:36.654Z,15.61
2023-02-18T04:06:36.662Z,15.52
2023-02-18T04:07:36.656Z,15.61
2023-02-18T04:08:36.660Z,15.52
2023-02-18T04:09:36.654Z,15.61
2023-02-18T04:10:36.659Z,15.61
2023-02-18T04:11:36.649Z,15.61
2023-02-18T04:12:36.660Z,15.71
2023-02-18T04:13:36.649Z,15.52
2023-02-18T04:14:36.656Z,15.61
2023-02-18T04:15:36.661Z,15.52
2023-02-18T04:16:36.729Z,15.81
2023-02-18T04:17:36.646Z,15.81
2023-02-18T04:18:36.651Z,15.71
2023-02-18T04:19:36.664Z,15.61
2023-02-18T04:20:36.651Z,15.61
2023-02-18T04:21:36.648Z,15.81
2023-02-18T04:22:36.649Z,15.71
2023-02-18T04:23:36.639Z,15.71
2023-02-18T04:24:36.654Z,15.71
2023-02-18T04:25:36.640Z,15.71
2023-02-18T04:26:36.644Z,15.71
2023-02-18T04:27:36.647Z,16.00
2023-02-18T04:28:36.666Z,15.91
2023-02-18T04:29:36.637Z,15.81
2023-02-18T04:30:36.729Z,15.81
2023-02-18T04:31:36.806Z,15.61
2023-02-18T04:32:36.643Z,15.81
2023-02-18T04:33:36.634Z,15.81
2023-02-18T04:34:36.641Z,15.91
2023-02-18T04:35:36.653Z,15.91
2023-02-18T04:36:36.640Z,15.91
2023-02-18T04:37:36.632Z,15.81
2023-02-18T04:38:36.637Z,15.81
2023-02-18T04:39:36.629Z,15.81
2023-02-18T04:40:36.636Z,15.91
2023-02-18T04:41:36.631Z,15.81
2023-02-18T04:42:36.639Z,16.00
2023-02-18T04:43:36.628Z,15.91
2023-02-18T04:44:36.640Z,16.00
2023-02-18T04:45:36.628Z,15.91
2023-02-18T04:46:36.679Z,16.00
2023-02-18T04:47:36.624Z,15.81
2023-02-18T04:48:36.631Z,16.00
2023-02-18T04:49:36.627Z,16.00
2023-02-18T04:50:36.628Z,16.00
2023-02-18T04:51:36.641Z,16.00
2023-02-18T04:52:36.627Z,15.91
2023-02-18T04:53:36.626Z,15.81
2023-02-18T04:54:36.629Z,15.91
2023-02-18T04:55:36.621Z,15.81
2023-02-18T04:56:36.628Z,15.91
2023-02-18T04:57:36.622Z,16.00
2023-02-18T04:58:36.628Z,15.71
2023-02-18T04:59:36.616Z,15.81
2023-02-18T05:00:36.634Z,15.81
2023-02-18T05:01:36.681Z,15.81
2023-02-18T05:02:36.625Z,15.91
2023-02-18T05:03:36.637Z,15.81
2023-02-18T05:04:36.622Z,15.81
2023-02-18T05:05:36.615Z,15.81
2023-02-18T05:06:36.621Z,15.81
2023-02-18T05:07:36.633Z,15.91
2023-02-18T05:08:36.623Z,15.71
2023-02-18T05:09:36.629Z,15.71
2023-02-18T05:10:36.618Z,15.71
2023-02-18T05:11:36.616Z,15.71
2023-02-18T05:12:36.618Z,15.71
2023-02-18T05:13:36.613Z,15.81
2023-02-18T05:14:36.619Z,15.91
2023-02-18T05:15:36.620Z,15.91
2023-02-18T05:16:36.620Z,16.00
2023-02-18T05:17:36.609Z,16.00
2023-02-18T05:18:36.616Z,15.91
2023-02-18T05:19:36.611Z,16.00
2023-02-18T05:20:36.614Z,16.00
2023-02-18T05:21:36.606Z,16.00
2023-02-18T05:22:36.613Z,15.91
2023-02-18T05:23:36.625Z,15.81
2023-02-18T05:24:36.613Z,16.00
2023-02-18T05:25:36.605Z,15.91
2023-02-18T05:26:36.673Z,15.71
2023-02-18T05:27:36.603Z,15.81
2023-02-18T05:28:36.610Z,15.61
2023-02-18T05:29:36.607Z,15.81
2023-02-18T05:30:36.673Z,15.91
2023-02-18T05:31:36.714Z,15.81
2023-02-18T05:32:36.613Z,15.71
2023-02-18T05:33:36.600Z,15.81
2023-02-18T05:34:36.605Z,15.81
2023-02-18T05:35:36.598Z,16.19
2023-02-18T05:36:36.602Z,16.19
2023-02-18T05:37:36.599Z,16.29
2023-02-18T05:38:36.603Z,16.19
2023-02-18T05:39:36.620Z,16.29
2023-02-18T05:40:36.637Z,16.29
2023-02-18T05:41:36.592Z,16.19
2023-02-18T05:42:36.596Z,16.19
2023-02-18T05:43:36.588Z,16.00
2023-02-18T05:44:36.602Z,16.00
2023-02-18T05:45:36.587Z,16.19
2023-02-18T05:46:36.619Z,16.00
2023-02-18T05:47:36.586Z,16.00
2023-02-18T05:48:36.594Z,16.00
2023-02-18T05:49:36.592Z,16.00
2023-02-18T05:50:36.591Z,15.91
2023-02-18T05:51:36.582Z,15.81
2023-02-18T05:52:36.589Z,15.91
2023-02-18T05:53:36.582Z,15.81
2023-02-18T05:54:36.592Z,15.91
2023-02-18T05:55:36.602Z,15.91
2023-02-18T05:56:36.599Z,15.91
2023-02-18T05:57:36.582Z,16.00
2023-02-18T05:58:36.583Z,16.19
2023-02-18T05:59:36.593Z,15.91
2023-02-18T06:00:36.590Z,16.09
2023-02-18T06:01:36.578Z,16.09
2023-02-18T06:02:36.605Z,16.39
2023-02-18T06:03:36.573Z,16.19
2023-02-18T06:04:36.585Z,16.29
2023-02-18T06:05:36.599Z,16.29
2023-02-18T06:06:36.578Z,16.29
2023-02-18T06:07:36.576Z,16.29
2023-02-18T06:08:36.588Z,16.09
2023-02-18T06:09:36.576Z,16.29
2023-02-18T06:10:36.576Z,16.39
2023-02-18T06:11:36.589Z,16.09
2023-02-18T06:12:36.578Z,16.19
2023-02-18T06:13:36.568Z,16.19
2023-02-18T06:14:36.572Z,16.09
2023-02-18T06:15:36.565Z,16.09
2023-02-18T06:16:36.572Z,16.09
2023-02-18T06:17:36.567Z,16.29
2023-02-18T06:18:36.572Z,16.29
2023-02-18T06:19:36.562Z,16.29
2023-02-18T06:20:36.574Z,16.19
2023-02-18T06:21:36.564Z,16.49
2023-02-18T06:22:36.567Z,16.19
2023-02-18T06:23:36.579Z,16.19
2023-02-18T06:24:36.565Z,16.39
2023-02-18T06:25:36.561Z,16.29
2023-02-18T06:26:36.564Z,16.39
2023-02-18T06:27:36.577Z,16.29
2023-02-18T06:28:36.561Z,16.29
2023-02-18T06:29:36.554Z,16.29
2023-02-18T06:30:36.663Z,16.29
2023-02-18T06:31:36.664Z,16.29
2023-02-18T06:32:36.566Z,16.29
2023-02-18T06:33:36.554Z,16.29
2023-02-18T06:34:36.556Z,16.58
2023-02-18T06:35:36.546Z,16.29
2023-02-18T06:36:36.556Z,16.39
2023-02-18T06:37:36.545Z,16.39
2023-02-18T06:38:36.552Z,16.39
2023-02-18T06:39:36.546Z,16.29
2023-02-18T06:40:36.548Z,16.39
2023-02-18T06:41:36.542Z,16.39
2023-02-18T06:42:36.546Z,16.58
2023-02-18T06:43:36.570Z,16.39
2023-02-18T06:44:38.027Z,16.49
2023-02-18T06:45:36.536Z,16.58
2023-02-18T06:46:36.594Z,16.49
2023-02-18T06:47:36.536Z,16.39
2023-02-18T06:48:36.545Z,16.39
2023-02-18T06:49:36.540Z,16.39
2023-02-18T06:50:36.538Z,16.68
2023-02-18T06:51:36.531Z,16.58
2023-02-18T06:52:36.537Z,16.39
2023-02-18T06:53:36.530Z,16.39
2023-02-18T06:54:36.536Z,16.57
2023-02-18T06:55:36.534Z,16.29
2023-02-18T06:56:36.534Z,16.39
2023-02-18T06:57:36.526Z,16.19
2023-02-18T06:58:36.538Z,16.39
2023-02-18T06:59:36.548Z,16.39
2023-02-18T07:00:36.562Z,16.57
2023-02-18T07:01:36.525Z,16.39
2023-02-18T07:02:36.553Z,16.39
2023-02-18T07:03:36.578Z,16.39
2023-02-18T07:04:36.528Z,16.58
2023-02-18T07:05:36.521Z,16.39
2023-02-18T07:06:36.525Z,16.58
2023-02-18T07:07:36.529Z,16.49
2023-02-18T07:08:36.528Z,16.39
2023-02-18T07:09:36.517Z,16.39
2023-02-18T07:10:36.530Z,16.49
2023-02-18T07:11:36.515Z,16.49
2023-02-18T07:12:36.521Z,16.58
2023-02-18T07:13:36.532Z,16.58
2023-02-18T07:14:36.520Z,16.39
2023-02-18T07:15:36.545Z,16.58
2023-02-18T07:16:36.541Z,16.39
2023-02-18T07:17:36.514Z,16.49
2023-02-18T07:18:36.517Z,16.49
2023-02-18T07:19:36.509Z,16.49
2023-02-18T07:20:36.515Z,16.58
2023-02-18T07:21:36.507Z,16.49
2023-02-18T07:22:36.514Z,16.49
2023-02-18T07:23:36.505Z,16.49
2023-02-18T07:24:36.512Z,16.49
2023-02-18T07:25:36.504Z,16.49
2023-02-18T07:26:36.511Z,16.58
2023-02-18T07:27:36.506Z,16.68
2023-02-18T07:28:36.509Z,16.58
2023-02-18T07:29:36.503Z,16.39
2023-02-18T07:30:36.588Z,16.58
2023-02-18T07:31:36.672Z,16.68
2023-02-18T07:32:36.508Z,16.78
2023-02-18T07:33:36.508Z,16.78
2023-02-18T07:34:36.503Z,16.49
2023-02-18T07:35:36.497Z,16.78
2023-02-18T07:36:36.502Z,16.78
2023-02-18T07:37:36.495Z,16.78
2023-02-18T07:38:36.504Z,16.49
2023-02-18T07:39:36.494Z,16.78
2023-02-18T07:40:36.503Z,16.78
2023-02-18T07:41:36.497Z,16.78
2023-02-18T07:42:36.500Z,16.78
2023-02-18T07:43:36.493Z,16.78
2023-02-18T07:44:36.491Z,16.78
2023-02-18T07:45:36.598Z,16.78
2023-02-18T07:46:36.488Z,16.78
2023-02-18T07:47:36.523Z,16.78
2023-02-18T07:48:36.496Z,16.78
2023-02-18T07:49:36.494Z,16.68
2023-02-18T07:50:36.485Z,16.78
2023-02-18T07:51:36.494Z,16.78
2023-02-18T07:52:36.499Z,16.68
2023-02-18T07:53:36.491Z,16.68
2023-02-18T07:54:36.482Z,16.78
2023-02-18T07:55:36.488Z,16.78
2023-02-18T07:56:36.484Z,16.78
2023-02-18T07:57:36.489Z,16.67
2023-02-18T07:58:36.492Z,16.78
2023-02-18T07:59:36.489Z,16.78
2023-02-18T08:00:36.500Z,16.78
2023-02-18T08:01:36.487Z,16.68
2023-02-18T08:02:36.476Z,16.68
2023-02-18T08:03:36.506Z,16.68
2023-02-18T08:04:36.476Z,16.68
2023-02-18T08:05:36.482Z,16.78
2023-02-18T08:06:36.473Z,16.78
2023-02-18T08:07:36.482Z,16.58
2023-02-18T08:08:37.282Z,16.68
2023-02-18T08:09:36.480Z,16.68
2023-02-18T08:10:36.470Z,16.78
2023-02-18T08:11:36.484Z,16.67
2023-02-18T08:12:36.478Z,16.68
2023-02-18T08:13:36.489Z,16.68
2023-02-18T08:14:36.482Z,16.57
2023-02-18T08:15:36.477Z,16.58
2023-02-18T08:16:36.524Z,16.68
2023-02-18T08:17:36.482Z,16.68
2023-02-18T08:18:36.474Z,16.68
2023-02-18T08:19:36.497Z,16.78
2023-02-18T08:20:36.468Z,16.68
2023-02-18T08:21:36.476Z,16.68
2023-02-18T08:22:36.473Z,16.68
2023-02-18T08:23:36.477Z,16.68
2023-02-18T08:24:36.478Z,16.58
2023-02-18T08:25:36.480Z,16.68
2023-02-18T08:26:36.464Z,16.68
2023-02-18T08:27:36.473Z,16.68
2023-02-18T08:28:36.484Z,16.58
2023-02-18T08:29:36.472Z,16.58
2023-02-18T08:30:36.600Z,16.68
2023-02-18T08:31:36.594Z,16.68
2023-02-18T08:32:36.461Z,16.57
2023-02-18T08:33:36.468Z,16.68
2023-02-18T08:34:36.460Z,16.68
2023-02-18T08:35:36.488Z,16.68
2023-02-18T08:36:36.460Z,16.68
2023-02-18T08:37:53.789Z,16.58
2023-02-18T08:38:36.457Z,16.58
2023-02-18T08:39:37.993Z,16.68
2023-02-18T08:40:36.456Z,16.58
2023-02-18T08:41:36.462Z,16.58
2023-02-18T08:42:36.457Z,16.68
2023-02-18T08:43:36.466Z,16.78
2023-02-18T08:44:36.452Z,16.68
2023-02-18T08:45:36.471Z,16.68
2023-02-18T08:46:36.524Z,16.68
2023-02-18T08:48:17.371Z,16.58
2023-02-18T08:48:36.458Z,16.68
2023-02-18T08:49:36.455Z,16.58
2023-02-18T08:50:36.455Z,16.58
2023-02-18T08:51:36.486Z,16.58
2023-02-18T08:52:36.452Z,16.68
2023-02-18T08:53:36.461Z,16.58
2023-02-18T08:54:36.444Z,16.58
2023-02-18T08:55:36.462Z,16.58
2023-02-18T08:56:36.449Z,16.68
2023-02-18T08:57:36.499Z,16.68
2023-02-18T08:58:36.442Z,16.68
2023-02-18T08:59:36.452Z,16.87
2023-02-18T09:00:36.446Z,16.68
2023-02-18T09:01:36.476Z,16.58
2023-02-18T09:02:36.439Z,16.68
2023-02-18T09:03:36.445Z,16.97
2023-02-18T09:04:36.439Z,16.58
2023-02-18T09:05:36.446Z,16.97
2023-02-18T09:06:36.441Z,16.97
2023-02-18T09:07:36.466Z,16.68
2023-02-18T09:08:36.442Z,16.58
2023-02-18T09:09:36.442Z,16.68
2023-02-18T09:10:36.433Z,16.68
2023-02-18T09:11:36.448Z,16.49
2023-02-18T09:12:36.434Z,16.87
2023-02-18T09:13:36.443Z,16.58
2023-02-18T09:14:36.437Z,16.97
2023-02-18T09:15:36.473Z,16.97
2023-02-18T09:16:36.432Z,16.49
2023-02-18T09:17:36.436Z,16.68
2023-02-18T09:18:36.428Z,16.58
2023-02-18T09:19:36.432Z,16.97
2023-02-18T09:20:36.427Z,16.87
2023-02-18T09:21:36.436Z,16.97
2023-02-18T09:22:36.426Z,16.97
2023-02-18T09:23:36.451Z,16.97
2023-02-18T09:24:36.419Z,16.97
2023-02-18T09:25:36.430Z,16.97
2023-02-18T09:26:36.420Z,16.97
2023-02-18T09:27:36.428Z,16.97
2023-02-18T09:28:36.416Z,16.97
2023-02-18T09:29:36.423Z,16.97
2023-02-18T09:30:36.511Z,16.87
2023-02-18T09:31:36.467Z,16.87
2023-02-18T09:32:36.455Z,16.97
2023-02-18T09:33:36.421Z,17.07
2023-02-18T09:34:36.412Z,16.97
2023-02-18T09:35:36.418Z,16.97
2023-02-18T09:36:36.411Z,16.97
2023-02-18T09:37:36.417Z,16.87
2023-02-18T09:38:36.410Z,16.97
2023-02-18T09:39:36.436Z,16.97
2023-02-18T09:40:36.407Z,16.87
2023-02-18T09:41:36.419Z,16.87
2023-02-18T09:42:36.426Z,16.87
2023-02-18T09:43:36.421Z,17.07
2023-02-18T09:44:36.404Z,16.97
2023-02-18T09:45:36.414Z,16.87
2023-02-18T09:46:36.515Z,16.87
2023-02-18T09:47:36.407Z,17.07
2023-02-18T09:48:36.403Z,16.97
2023-02-18T09:49:36.406Z,16.87
2023-02-18T09:50:36.398Z,16.97
2023-02-18T09:51:36.403Z,16.78
2023-02-18T09:52:36.396Z,16.87
2023-02-18T09:53:36.404Z,16.87
2023-02-18T09:54:36.394Z,16.87
2023-02-18T09:55:36.431Z,16.97
2023-02-18T09:56:36.402Z,16.97
2023-02-18T09:57:36.400Z,16.87
2023-02-18T09:58:36.393Z,17.07
2023-02-18T09:59:36.399Z,16.87
2023-02-18T10:00:36.396Z,16.97
2023-02-18T10:01:36.432Z,16.87
2023-02-18T10:02:36.389Z,16.97
2023-02-18T10:03:36.405Z,16.97
2023-02-18T10:04:36.389Z,16.97
2023-02-18T10:05:36.400Z,16.87
2023-02-18T10:06:36.388Z,16.78
2023-02-18T10:07:36.394Z,16.97
2023-02-18T10:08:36.411Z,16.78
2023-02-18T10:09:36.416Z,16.87
2023-02-18T10:10:36.384Z,16.78
2023-02-18T10:11:36.434Z,16.78
2023-02-18T10:12:36.383Z,16.87
2023-02-18T10:13:36.395Z,16.78
2023-02-18T10:14:36.402Z,16.87
2023-02-18T10:15:36.430Z,16.78
2023-02-18T10:16:36.380Z,16.78
2023-02-18T10:17:36.403Z,16.87
2023-02-18T10:18:36.378Z,16.78
2023-02-18T10:19:36.393Z,16.78
2023-02-18T10:20:36.382Z,16.87
2023-02-18T10:21:36.389Z,16.87
2023-02-18T10:22:36.377Z,16.78
2023-02-18T10:23:36.387Z,16.87
2023-02-18T10:24:36.376Z,16.78
2023-02-18T10:25:36.384Z,16.78
2023-02-18T10:26:36.375Z,16.87
2023-02-18T10:27:36.421Z,16.78
2023-02-18T10:28:36.374Z,16.87
2023-02-18T10:29:36.384Z,16.78
2023-02-18T10:30:36.525Z,16.78
2023-02-18T10:31:36.462Z,16.78
2023-02-18T10:32:36.374Z,16.78
2023-02-18T10:33:36.387Z,16.78
2023-02-18T10:34:36.369Z,16.78
2023-02-18T10:35:36.378Z,16.87
2023-02-18T10:36:36.368Z,16.78
2023-02-18T10:37:36.378Z,16.87
2023-02-18T10:38:36.379Z,16.78
2023-02-18T10:39:36.389Z,16.87
2023-02-18T10:40:36.366Z,16.87
2023-02-18T10:41:36.373Z,16.68
2023-02-18T10:42:36.369Z,16.78
2023-02-18T10:43:36.390Z,16.87
2023-02-18T10:44:36.386Z,16.68
2023-02-18T10:45:36.369Z,16.87
2023-02-18T10:46:36.420Z,16.78
2023-02-18T10:47:36.367Z,16.78
2023-02-18T10:48:36.364Z,16.78
2023-02-18T10:49:36.374Z,16.78
2023-02-18T10:50:36.358Z,16.78
2023-02-18T10:51:36.371Z,16.78
2023-02-18T10:52:36.358Z,16.78
2023-02-18T10:53:36.363Z,16.68
2023-02-18T10:54:36.354Z,16.68
2023-02-18T10:55:36.364Z,16.78
2023-02-18T10:56:36.397Z,16.68
2023-02-18T10:57:36.360Z,16.58
2023-02-18T10:58:36.359Z,16.58
2023-02-18T10:59:36.411Z,16.78
2023-02-18T11:00:36.364Z,16.78
2023-02-18T11:01:36.586Z,16.68
2023-02-18T11:02:36.347Z,16.78
2023-02-18T11:03:36.353Z,16.68
2023-02-18T11:04:36.363Z,16.58
2023-02-18T11:05:36.353Z,16.78
2023-02-18T11:06:36.343Z,16.78
2023-02-18T11:07:36.350Z,16.78
2023-02-18T11:08:36.342Z,16.78
2023-02-18T11:09:36.349Z,16.58
2023-02-18T11:10:36.345Z,16.78
2023-02-18T11:11:36.350Z,16.78
2023-02-18T11:12:36.341Z,16.78
2023-02-18T11:13:36.346Z,16.68
2023-02-18T11:14:36.338Z,16.78
2023-02-18T11:15:36.364Z,16.68
2023-02-18T11:16:36.336Z,16.78
2023-02-18T11:17:36.350Z,16.78
2023-02-18T11:18:36.333Z,16.78
2023-02-18T11:19:36.347Z,16.68
2023-02-18T11:20:36.332Z,16.68
2023-02-18T11:21:36.341Z,16.68
2023-02-18T11:22:36.331Z,16.68
2023-02-18T11:23:36.338Z,16.68
2023-02-18T11:24:36.329Z,16.68
2023-02-18T11:25:36.336Z,16.58
2023-02-18T11:26:36.332Z,16.68
2023-02-18T11:27:36.334Z,16.78
2023-02-18T11:28:36.331Z,16.68
2023-02-18T11:29:36.333Z,16.68
2023-02-18T11:30:36.398Z,16.58
2023-02-18T11:31:36.440Z,16.78
2023-02-18T11:32:36.329Z,16.68
2023-02-18T11:33:36.348Z,16.58
2023-02-18T11:34:36.323Z,16.58
2023-02-18T11:35:36.329Z,16.68
2023-02-18T11:36:36.331Z,16.78
2023-02-18T11:37:36.329Z,16.58
2023-02-18T11:38:36.326Z,16.68
2023-02-18T11:39:36.331Z,16.58
2023-02-18T11:40:36.317Z,16.68
2023-02-18T11:41:36.326Z,16.68
2023-02-18T11:42:36.320Z,16.68
2023-02-18T11:43:36.325Z,16.68
2023-02-18T11:44:36.319Z,16.78
2023-02-18T11:45:36.324Z,16.78
2023-02-18T11:46:36.318Z,16.68
2023-02-18T11:47:36.343Z,16.87
2023-02-18T11:48:36.313Z,16.87
2023-02-18T11:49:36.319Z,16.87
2023-02-18T11:50:36.313Z,16.68
2023-02-18T11:51:36.321Z,16.68
2023-02-18T11:52:36.309Z,16.78
2023-02-18T11:53:36.319Z,16.68
2023-02-18T11:54:36.309Z,16.68
2023-02-18T11:55:36.319Z,16.78
2023-02-18T11:56:36.361Z,16.68
2023-02-18T11:57:36.317Z,16.78
2023-02-18T11:58:36.310Z,16.87
2023-02-18T11:59:36.319Z,16.68
2023-02-18T12:00:36.317Z,16.78
2023-02-18T12:01:36.311Z,16.78
2023-02-18T12:02:36.329Z,16.87
2023-02-18T12:03:36.331Z,16.68
2023-02-18T12:04:36.321Z,16.87
2023-02-18T12:05:36.307Z,16.78
2023-02-18T12:06:36.312Z,16.87
2023-02-18T12:07:36.305Z,16.97
2023-02-18T12:08:36.312Z,16.97
2023-02-18T12:09:36.307Z,16.97
2023-02-18T12:10:36.324Z,16.87
2023-02-18T12:11:36.303Z,16.87
2023-02-18T12:12:36.312Z,17.07
2023-02-18T12:13:36.303Z,17.07
2023-02-18T12:14:36.309Z,17.07
2023-02-18T12:15:36.334Z,16.97
2023-02-18T12:16:36.334Z,17.07
2023-02-18T12:17:36.301Z,16.97
2023-02-18T12:18:38.796Z,16.87
2023-02-18T12:19:36.320Z,16.87
2023-02-18T12:20:36.307Z,16.97
2023-02-18T12:21:36.302Z,16.87
2023-02-18T12:22:36.312Z,16.97
2023-02-18T12:23:36.296Z,16.87
2023-02-18T12:24:36.302Z,17.07
2023-02-18T12:25:36.298Z,16.97
2023-02-18T12:26:36.301Z,16.97
2023-02-18T12:27:36.293Z,17.07
2023-02-18T12:28:36.299Z,17.07
2023-02-18T12:29:36.328Z,16.97
2023-02-18T12:30:36.325Z,17.07
2023-02-18T12:31:36.423Z,17.07
2023-02-18T12:32:36.298Z,16.97
2023-02-18T12:33:37.294Z,17.16
2023-02-18T12:34:36.294Z,17.07
2023-02-18T12:35:36.310Z,17.07
2023-02-18T12:36:36.298Z,17.16
2023-02-18T12:37:36.289Z,17.16
2023-02-18T12:38:36.292Z,17.16
2023-02-18T12:39:36.281Z,17.16
2023-02-18T12:40:36.290Z,17.16
2023-02-18T12:41:36.284Z,17.16
2023-02-18T12:42:36.298Z,17.16
2023-02-18T12:43:36.282Z,17.16
2023-02-18T12:44:36.288Z,17.16
2023-02-18T12:45:36.346Z,17.26
2023-02-18T12:46:36.289Z,17.16
2023-02-18T12:47:37.833Z,17.16
2023-02-18T12:48:36.284Z,17.16
2023-02-18T12:49:36.278Z,17.16
2023-02-18T12:50:36.289Z,17.26
2023-02-18T12:51:36.310Z,17.26
2023-02-18T12:52:36.281Z,17.16